KGSO/GSO METAR and TAF weather

Enter ICAO airport designator
Station Type Date Time Source
KGSO METAR 2018/12/13 08:54 UTC NOAA

KGSO 130854Z 20005KT 10SM BKN070 01/M02 A3018 RMK AO2 SLP223 T00061017 58002


Station Type Date Time Source
KGSO Decoded METAR 2018/12/13 08:54 UTC NOAA

PIEDMONT TRIAD INTERNATIONAL AIRPORT , NC, United States (KGSO) 36-06N 079-57W 275M
Dec 13, 2018 - 03:54 AM EST / 2018.12.13 0854 UTC
Wind: from the SSW (200 degrees) at 6 MPH (5 KT):0
Visibility: 10 mile(s):0
Sky conditions: mostly cloudy
Temperature: 33.1 F (0.6 C)
Windchill: 28 F (-2 C):1
Dew Point: 28.9 F (-1.7 C)
Relative Humidity: 84%
Pressure (altimeter): 30.18 in. Hg (1022 hPa)
Pressure tendency: 0.01 inches (0.2 hPa) lower than three hours ago
ob: KGSO 130854Z 20005KT 10SM BKN070 01/M02 A3018 RMK AO2 SLP223 T00061017 58002
cycle: 9

Station Type Date Time Source
KGSO TAF 2018/12/13 06:42 UTC NOAA

TAF KGSO 130539Z 1306/1406 20003KT P6SM FEW100 SCT250
TEMPO 1308/1312 5SM BR BCFG FEW050
FM131500 23002KT P6SM OVC250


Example: see airport list